createdAt,value
2022-07-29T00:02:11.755Z,18.30
2022-07-29T00:04:38.642Z,18.30
2022-07-29T00:07:05.433Z,18.30
2022-07-29T00:09:32.657Z,18.20
2022-07-29T00:12:01.092Z,18.20
2022-07-29T00:14:28.082Z,18.20
2022-07-29T00:16:55.024Z,18.20
2022-07-29T00:19:21.795Z,18.10
2022-07-29T00:21:50.297Z,18.10
2022-07-29T00:24:17.263Z,18.00
2022-07-29T00:26:44.282Z,18.00
2022-07-29T00:29:33.461Z,17.90
2022-07-29T00:31:57.763Z,17.90
2022-07-29T00:34:24.485Z,17.80
2022-07-29T00:36:51.212Z,17.80
2022-07-29T00:39:17.933Z,17.80
2022-07-29T00:41:44.624Z,17.70
2022-07-29T00:44:11.385Z,17.70
2022-07-29T00:46:38.116Z,17.70
2022-07-29T00:49:04.875Z,17.60
2022-07-29T00:51:31.737Z,17.60
2022-07-29T00:53:58.456Z,17.50
2022-07-29T00:56:25.226Z,17.50
2022-07-29T00:58:51.990Z,17.50
2022-07-29T01:01:18.847Z,17.40
2022-07-29T01:03:45.597Z,17.40
2022-07-29T01:06:12.286Z,17.30
2022-07-29T01:08:39.023Z,17.20
2022-07-29T01:11:05.688Z,17.10
2022-07-29T01:13:32.385Z,17.00
2022-07-29T01:16:03.829Z,16.90
2022-07-29T01:18:35.942Z,16.80
2022-07-29T01:21:24.425Z,16.70
2022-07-29T01:24:15.494Z,16.70
2022-07-29T01:27:05.596Z,16.70
2022-07-29T01:29:48.896Z,16.70
2022-07-29T01:32:28.878Z,16.70
2022-07-29T01:35:05.756Z,16.70
2022-07-29T01:37:52.918Z,16.80
2022-07-29T01:40:42.073Z,16.80
2022-07-29T01:43:11.551Z,16.80
2022-07-29T01:45:48.764Z,16.80
2022-07-29T01:48:28.823Z,16.80
2022-07-29T01:51:17.919Z,16.80
2022-07-29T01:54:17.702Z,16.80
2022-07-29T01:56:45.040Z,16.80
2022-07-29T01:59:11.776Z,16.80
2022-07-29T02:01:38.925Z,16.80
2022-07-29T02:04:07.247Z,16.80
2022-07-29T02:06:34.433Z,16.80
2022-07-29T02:09:01.158Z,16.80
2022-07-29T02:11:27.862Z,16.80
2022-07-29T02:13:55.803Z,16.80
2022-07-29T02:16:22.834Z,16.80
2022-07-29T02:18:50.546Z,16.70
2022-07-29T02:21:20.451Z,16.70
2022-07-29T02:23:50.972Z,16.60
2022-07-29T02:26:19.074Z,16.50
2022-07-29T02:28:45.770Z,16.50
2022-07-29T02:31:12.487Z,16.50
2022-07-29T02:33:39.217Z,16.40
2022-07-29T02:36:06.064Z,16.50
2022-07-29T02:38:32.849Z,16.40
2022-07-29T02:41:00.997Z,16.40
2022-07-29T02:43:27.771Z,16.30
2022-07-29T02:45:54.801Z,16.30
2022-07-29T02:48:23.912Z,16.30
2022-07-29T02:50:52.781Z,16.30
2022-07-29T02:53:20.971Z,16.30
2022-07-29T02:55:52.968Z,16.20
2022-07-29T02:58:25.175Z,16.10
2022-07-29T03:00:51.856Z,16.20
2022-07-29T03:03:20.571Z,16.10
2022-07-29T03:05:47.265Z,16.10
2022-07-29T03:08:14.086Z,16.00
2022-07-29T03:10:41.275Z,15.90
2022-07-29T03:13:07.995Z,15.90
2022-07-29T03:15:34.882Z,15.80
2022-07-29T03:18:01.683Z,15.70
2022-07-29T03:20:28.443Z,15.60
2022-07-29T03:22:55.167Z,15.60
2022-07-29T03:25:21.866Z,15.50
2022-07-29T03:27:48.860Z,15.40
2022-07-29T03:30:20.359Z,15.40
2022-07-29T03:32:49.388Z,15.30
2022-07-29T03:35:18.667Z,15.30
2022-07-29T03:37:45.640Z,15.30
2022-07-29T03:40:15.345Z,15.20
2022-07-29T03:42:42.022Z,15.20
2022-07-29T03:45:10.913Z,15.20
2022-07-29T03:47:50.069Z,15.30
2022-07-29T03:50:18.445Z,15.20
2022-07-29T03:52:45.406Z,15.20
2022-07-29T03:55:12.425Z,15.20
2022-07-29T03:57:39.203Z,15.20
2022-07-29T04:00:06.485Z,15.20
2022-07-29T04:02:33.497Z,15.20
2022-07-29T04:05:00.459Z,15.20
2022-07-29T04:07:27.273Z,15.20
2022-07-29T04:09:53.954Z,15.10
2022-07-29T04:12:20.649Z,15.00
2022-07-29T04:14:47.457Z,15.00
2022-07-29T04:17:14.145Z,15.00
2022-07-29T04:19:40.836Z,15.00
2022-07-29T04:22:07.554Z,15.00
2022-07-29T04:24:34.306Z,15.00
2022-07-29T04:27:01.018Z,14.90
2022-07-29T04:29:27.774Z,14.90
2022-07-29T04:31:54.499Z,14.90
2022-07-29T04:34:21.349Z,14.80
2022-07-29T04:36:48.138Z,14.80
2022-07-29T04:39:19.321Z,14.90
2022-07-29T04:41:49.111Z,14.90
2022-07-29T04:44:16.025Z,14.90
2022-07-29T04:46:43.939Z,14.90
2022-07-29T04:49:10.717Z,15.00
2022-07-29T04:51:37.467Z,15.00
2022-07-29T04:54:04.277Z,15.00
2022-07-29T04:56:31.016Z,15.00
2022-07-29T04:58:57.725Z,14.90
2022-07-29T05:01:24.520Z,14.90
2022-07-29T05:03:51.372Z,14.90
2022-07-29T05:06:18.220Z,14.90
2022-07-29T05:08:44.958Z,15.00
2022-07-29T05:11:13.594Z,15.00
2022-07-29T05:13:45.410Z,15.00
2022-07-29T05:16:13.402Z,15.00
2022-07-29T05:18:40.153Z,15.00
2022-07-29T05:21:06.913Z,15.00
2022-07-29T05:23:33.676Z,15.00
2022-07-29T05:26:00.451Z,15.00
2022-07-29T05:28:27.187Z,15.00
2022-07-29T05:30:53.981Z,15.00
2022-07-29T05:33:35.578Z,15.10
2022-07-29T05:36:06.610Z,15.20
2022-07-29T05:38:33.925Z,15.20
2022-07-29T05:41:00.775Z,15.30
2022-07-29T05:43:31.130Z,15.50
2022-07-29T05:45:58.038Z,15.70
2022-07-29T05:48:25.158Z,15.70
2022-07-29T05:50:51.873Z,15.80
2022-07-29T05:53:19.898Z,16.00
2022-07-29T05:55:48.049Z,16.10
2022-07-29T05:58:14.744Z,16.20
2022-07-29T06:00:41.645Z,16.30
2022-07-29T06:03:08.387Z,16.40
2022-07-29T06:05:35.232Z,16.50
2022-07-29T06:08:02.019Z,16.70
2022-07-29T06:10:28.729Z,16.80
2022-07-29T06:12:55.456Z,17.00
2022-07-29T06:15:22.161Z,17.20
2022-07-29T06:17:59.840Z,17.30
2022-07-29T06:20:28.425Z,17.50
2022-07-29T06:22:55.130Z,17.70
2022-07-29T06:25:21.840Z,17.80
2022-07-29T06:27:48.734Z,18.00
2022-07-29T06:30:15.420Z,18.10
2022-07-29T06:32:43.451Z,18.20
2022-07-29T06:35:39.237Z,18.30
2022-07-29T06:37:59.613Z,18.40
2022-07-29T06:40:27.064Z,18.50
2022-07-29T06:42:53.751Z,18.50
2022-07-29T06:45:20.502Z,18.70
2022-07-29T06:47:47.193Z,18.80
2022-07-29T06:50:13.890Z,18.90
2022-07-29T06:52:40.656Z,19.10
2022-07-29T06:55:08.022Z,19.20
2022-07-29T06:57:34.953Z,19.30
2022-07-29T07:00:01.690Z,19.50
2022-07-29T07:02:28.512Z,19.60
2022-07-29T07:04:55.624Z,19.70
2022-07-29T07:07:22.317Z,19.70
2022-07-29T07:09:48.981Z,19.80
2022-07-29T07:12:15.667Z,19.90
2022-07-29T07:14:42.405Z,20.10
2022-07-29T07:17:09.260Z,20.10
2022-07-29T07:19:40.174Z,20.20
2022-07-29T07:22:06.897Z,20.30
2022-07-29T07:24:33.590Z,20.30
2022-07-29T07:27:00.298Z,20.30
2022-07-29T07:29:27.015Z,20.20
2022-07-29T07:31:57.559Z,20.20
2022-07-29T07:34:28.412Z,20.10
2022-07-29T07:36:56.506Z,20.10
2022-07-29T07:39:23.284Z,20.10
2022-07-29T07:41:49.989Z,20.10
2022-07-29T07:44:17.501Z,20.10
2022-07-29T07:46:44.572Z,20.00
2022-07-29T07:49:12.019Z,20.00
2022-07-29T07:51:38.778Z,20.00
2022-07-29T07:54:05.724Z,20.00
2022-07-29T07:56:35.309Z,20.00
2022-07-29T07:59:02.203Z,20.00
2022-07-29T08:01:28.989Z,20.00
2022-07-29T08:04:14.621Z,20.10
2022-07-29T08:06:41.582Z,20.10
2022-07-29T08:09:28.084Z,20.10
2022-07-29T08:11:55.025Z,20.10
2022-07-29T08:14:21.720Z,20.20
2022-07-29T08:16:48.545Z,20.20
2022-07-29T08:19:15.328Z,20.30
2022-07-29T08:21:42.047Z,20.40
2022-07-29T08:24:08.797Z,20.50
2022-07-29T08:26:35.568Z,20.50
2022-07-29T08:29:02.278Z,20.60
2022-07-29T08:31:29.096Z,20.70
2022-07-29T08:33:55.890Z,20.80
2022-07-29T08:36:22.609Z,20.80
2022-07-29T08:38:49.304Z,20.80
2022-07-29T08:41:16.041Z,20.90
2022-07-29T08:43:43.092Z,21.00
2022-07-29T08:46:09.871Z,21.10
2022-07-29T08:48:36.739Z,21.20
2022-07-29T08:51:04.444Z,21.20
2022-07-29T08:53:31.348Z,21.30
2022-07-29T08:55:58.081Z,21.50
2022-07-29T08:58:25.608Z,21.60
2022-07-29T09:00:56.715Z,21.70
2022-07-29T09:03:26.718Z,21.80
2022-07-29T09:05:53.484Z,21.80
2022-07-29T09:08:20.392Z,22.00
2022-07-29T09:10:47.225Z,22.10
2022-07-29T09:13:13.952Z,22.10
2022-07-29T09:15:40.649Z,22.30
2022-07-29T09:18:07.337Z,22.40
2022-07-29T09:20:34.014Z,22.50
2022-07-29T09:23:08.726Z,22.60
2022-07-29T09:25:36.429Z,22.70
2022-07-29T09:28:21.328Z,22.80
2022-07-29T09:30:54.983Z,22.90
2022-07-29T09:33:22.697Z,23.00
2022-07-29T09:36:05.877Z,23.10
2022-07-29T09:38:33.191Z,23.30
2022-07-29T09:41:06.066Z,23.40
2022-07-29T09:43:33.683Z,23.50
2022-07-29T09:46:13.323Z,23.60
2022-07-29T09:48:40.242Z,23.80
2022-07-29T09:51:07.025Z,23.90
2022-07-29T09:53:37.644Z,24.00
2022-07-29T09:56:05.382Z,24.10
2022-07-29T09:58:32.110Z,24.30
2022-07-29T10:00:58.865Z,24.60
2022-07-29T10:03:25.827Z,24.70
2022-07-29T10:06:11.792Z,25.00
2022-07-29T10:08:38.551Z,25.10
2022-07-29T10:11:16.260Z,25.30
2022-07-29T10:13:45.196Z,25.50
2022-07-29T10:16:12.159Z,25.60
2022-07-29T10:18:41.403Z,25.70
2022-07-29T10:21:08.261Z,25.70
2022-07-29T10:23:46.261Z,25.70
2022-07-29T10:26:14.164Z,25.80
2022-07-29T10:28:40.941Z,25.90
2022-07-29T10:31:09.219Z,26.00
2022-07-29T10:34:08.793Z,26.00
2022-07-29T10:36:44.249Z,26.00
2022-07-29T10:39:49.571Z,26.20
2022-07-29T10:42:33.657Z,26.40
2022-07-29T10:45:01.973Z,26.70
2022-07-29T10:47:28.805Z,27.30
2022-07-29T10:50:05.907Z,28.20
2022-07-29T10:52:51.220Z,29.30
2022-07-29T10:55:31.662Z,30.50
2022-07-29T10:58:21.192Z,31.70
2022-07-29T11:00:49.441Z,32.70
2022-07-29T11:03:53.928Z,33.40
2022-07-29T11:06:26.262Z,34.30
2022-07-29T11:09:25.762Z,35.20
2022-07-29T11:12:02.489Z,36.00
2022-07-29T11:14:54.620Z,36.70
2022-07-29T11:17:23.424Z,37.40
2022-07-29T11:19:52.233Z,37.70
2022-07-29T11:22:34.869Z,37.80
2022-07-29T11:25:18.242Z,37.60
2022-07-29T11:27:48.093Z,38.00
2022-07-29T11:30:14.809Z,38.30
2022-07-29T11:32:44.845Z,38.60
2022-07-29T11:35:37.942Z,38.70
2022-07-29T11:38:27.991Z,38.90
2022-07-29T11:41:20.959Z,39.60
2022-07-29T11:43:51.437Z,40.00
2022-07-29T11:46:38.290Z,40.00
2022-07-29T11:49:09.263Z,39.50
2022-07-29T11:51:37.797Z,39.10
2022-07-29T11:54:16.031Z,38.90
2022-07-29T11:56:42.824Z,39.20
2022-07-29T11:59:09.526Z,39.50
2022-07-29T12:01:36.626Z,39.90
2022-07-29T12:04:07.005Z,40.40
2022-07-29T12:06:36.516Z,40.60
2022-07-29T12:09:14.435Z,40.50
2022-07-29T12:11:41.522Z,40.20
2022-07-29T12:14:26.463Z,40.20
2022-07-29T12:16:53.210Z,40.60
2022-07-29T12:19:22.062Z,40.60
2022-07-29T12:21:56.170Z,40.90
2022-07-29T12:24:27.018Z,41.20
2022-07-29T12:26:58.343Z,41.60
2022-07-29T12:29:35.237Z,41.80
2022-07-29T12:32:03.160Z,41.90
2022-07-29T12:34:30.105Z,42.20
2022-07-29T12:36:56.841Z,42.50
2022-07-29T12:39:23.546Z,42.70
2022-07-29T12:41:50.248Z,42.90
2022-07-29T12:44:16.948Z,43.00
2022-07-29T12:46:43.767Z,42.60
2022-07-29T12:49:10.647Z,41.40
2022-07-29T12:51:40.790Z,39.70
2022-07-29T12:54:12.556Z,38.70
2022-07-29T12:56:44.072Z,38.60
2022-07-29T12:59:18.775Z,39.00
2022-07-29T13:01:46.167Z,39.80
2022-07-29T13:04:28.087Z,40.40
2022-07-29T13:07:05.142Z,40.90
2022-07-29T13:09:42.282Z,41.60
2022-07-29T13:12:10.122Z,42.20
2022-07-29T13:14:47.589Z,42.70
2022-07-29T13:17:15.865Z,43.00
2022-07-29T13:19:50.265Z,42.80
2022-07-29T13:22:24.238Z,41.70
2022-07-29T13:24:52.520Z,40.10
2022-07-29T13:27:21.725Z,38.70
2022-07-29T13:29:48.457Z,37.70
2022-07-29T13:32:15.224Z,37.20
2022-07-29T13:34:41.953Z,37.40
2022-07-29T13:37:08.796Z,37.50
2022-07-29T13:39:35.506Z,38.40
2022-07-29T13:42:02.239Z,39.50
2022-07-29T13:44:28.949Z,40.50
2022-07-29T13:46:55.657Z,41.20
2022-07-29T13:49:22.560Z,41.30
2022-07-29T13:51:50.538Z,41.00
2022-07-29T13:54:17.319Z,40.80
2022-07-29T13:56:44.056Z,40.10
2022-07-29T13:59:13.139Z,40.20
2022-07-29T14:01:40.224Z,40.70
2022-07-29T14:04:06.995Z,41.30
2022-07-29T14:06:33.761Z,42.00
2022-07-29T14:09:01.397Z,42.20
2022-07-29T14:11:28.106Z,42.30
2022-07-29T14:13:54.853Z,42.80
2022-07-29T14:16:21.637Z,42.60
2022-07-29T14:18:48.401Z,41.60
2022-07-29T14:21:15.113Z,40.50
2022-07-29T14:23:42.388Z,39.60
2022-07-29T14:26:10.897Z,38.60
2022-07-29T14:28:42.729Z,37.90
2022-07-29T14:31:09.420Z,38.20
2022-07-29T14:33:36.778Z,38.20
2022-07-29T14:36:03.706Z,37.60
2022-07-29T14:38:30.410Z,37.20
2022-07-29T14:40:59.441Z,38.20
2022-07-29T14:43:26.203Z,39.50
2022-07-29T14:45:55.998Z,40.90
2022-07-29T14:48:25.481Z,42.20
2022-07-29T14:50:52.186Z,43.20
2022-07-29T14:53:19.023Z,43.50
2022-07-29T14:55:45.964Z,43.70
2022-07-29T14:58:16.480Z,43.80
2022-07-29T15:00:43.482Z,43.60
2022-07-29T15:03:11.012Z,43.50
2022-07-29T15:05:38.526Z,43.20
2022-07-29T15:08:05.387Z,42.70
2022-07-29T15:10:32.098Z,42.10
2022-07-29T15:12:58.832Z,41.50
2022-07-29T15:15:25.859Z,40.80
2022-07-29T15:17:52.599Z,40.30
2022-07-29T15:20:19.358Z,39.90
2022-07-29T15:22:46.080Z,39.40
2022-07-29T15:25:12.796Z,38.70
2022-07-29T15:27:40.663Z,38.30
2022-07-29T15:30:33.637Z,38.00
2022-07-29T15:33:02.443Z,37.30
2022-07-29T15:35:29.158Z,36.40
2022-07-29T15:37:55.941Z,35.60
2022-07-29T15:40:22.643Z,35.10
2022-07-29T15:42:49.354Z,34.70
2022-07-29T15:45:16.049Z,34.30
2022-07-29T15:47:44.449Z,33.80
2022-07-29T15:50:11.266Z,33.30
2022-07-29T15:52:37.988Z,32.90
2022-07-29T15:55:08.778Z,32.50
2022-07-29T15:57:35.570Z,32.30
2022-07-29T16:00:02.580Z,32.00
2022-07-29T16:02:29.353Z,31.70
2022-07-29T16:04:56.089Z,31.50
2022-07-29T16:07:22.865Z,31.20
2022-07-29T16:09:53.411Z,31.00
2022-07-29T16:12:20.629Z,30.90
2022-07-29T16:14:47.385Z,30.70
2022-07-29T16:17:14.310Z,30.60
2022-07-29T16:19:42.527Z,30.40
2022-07-29T16:22:09.248Z,30.30
2022-07-29T16:24:35.960Z,30.20
2022-07-29T16:27:02.665Z,30.20
2022-07-29T16:29:29.380Z,30.10
2022-07-29T16:31:56.159Z,30.10
2022-07-29T16:34:22.956Z,30.00
2022-07-29T16:36:49.806Z,30.00
2022-07-29T16:39:16.567Z,30.10
2022-07-29T16:41:43.285Z,30.10
2022-07-29T16:44:10.010Z,30.10
2022-07-29T16:46:36.857Z,30.20
2022-07-29T16:49:04.679Z,30.40
2022-07-29T16:51:31.456Z,30.70
2022-07-29T16:53:58.194Z,31.00
2022-07-29T16:56:24.898Z,31.30
2022-07-29T16:58:51.654Z,31.30
2022-07-29T17:01:18.536Z,31.20
2022-07-29T17:03:45.264Z,30.90
2022-07-29T17:06:12.025Z,30.70
2022-07-29T17:08:38.763Z,30.40
2022-07-29T17:11:05.495Z,30.30
2022-07-29T17:13:32.198Z,30.10
2022-07-29T17:16:00.844Z,29.90
2022-07-29T17:18:27.733Z,29.80
2022-07-29T17:20:54.426Z,29.70
2022-07-29T17:23:21.141Z,29.50
2022-07-29T17:25:47.856Z,29.40
2022-07-29T17:28:14.562Z,29.30
2022-07-29T17:30:41.287Z,29.00
2022-07-29T17:33:08.001Z,28.90
2022-07-29T17:35:34.727Z,28.70
2022-07-29T17:38:01.450Z,28.60
2022-07-29T17:40:28.207Z,28.40
2022-07-29T17:42:54.928Z,28.40
2022-07-29T17:45:21.649Z,28.30
2022-07-29T17:47:48.359Z,28.10
2022-07-29T17:50:15.059Z,28.00
2022-07-29T17:52:41.786Z,27.90
2022-07-29T17:55:08.605Z,27.80
2022-07-29T17:57:35.328Z,27.80
2022-07-29T18:00:02.197Z,27.70
2022-07-29T18:02:29.068Z,27.60
2022-07-29T18:04:55.853Z,27.50
2022-07-29T18:07:22.580Z,27.40
2022-07-29T18:09:49.268Z,27.30
2022-07-29T18:12:16.000Z,27.20
2022-07-29T18:14:42.709Z,27.20
2022-07-29T18:17:09.435Z,27.20
2022-07-29T18:19:36.149Z,27.20
2022-07-29T18:22:05.305Z,27.10
2022-07-29T18:24:32.528Z,27.00
2022-07-29T18:26:59.598Z,27.00
2022-07-29T18:29:26.628Z,27.00
2022-07-29T18:31:53.335Z,26.90
2022-07-29T18:34:20.037Z,26.90
2022-07-29T18:36:46.771Z,26.80
2022-07-29T18:39:20.781Z,26.80
2022-07-29T18:41:51.764Z,26.70
2022-07-29T18:44:22.882Z,26.60
2022-07-29T18:46:51.084Z,26.50
2022-07-29T18:49:18.150Z,26.40
2022-07-29T18:51:44.989Z,26.30
2022-07-29T18:54:11.684Z,26.20
2022-07-29T18:56:38.459Z,26.10
2022-07-29T18:59:05.176Z,26.10
2022-07-29T19:01:32.343Z,26.00
2022-07-29T19:04:00.294Z,25.90
2022-07-29T19:06:27.065Z,25.80
2022-07-29T19:08:53.752Z,25.70
2022-07-29T19:11:20.561Z,25.70
2022-07-29T19:13:47.261Z,25.50
2022-07-29T19:16:14.210Z,25.50
2022-07-29T19:18:41.127Z,25.40
2022-07-29T19:21:07.843Z,25.30
2022-07-29T19:24:00.684Z,25.30
2022-07-29T19:26:21.256Z,25.20
2022-07-29T19:28:48.885Z,25.20
2022-07-29T19:31:16.162Z,25.20
2022-07-29T19:33:42.981Z,25.10
2022-07-29T19:36:09.713Z,25.00
2022-07-29T19:38:36.486Z,24.90
2022-07-29T19:41:03.187Z,24.90
2022-07-29T19:43:51.688Z,24.80
2022-07-29T19:46:16.683Z,24.70
2022-07-29T19:48:43.488Z,24.60
2022-07-29T19:51:10.218Z,24.60
2022-07-29T19:53:37.000Z,24.50
2022-07-29T19:56:04.027Z,24.50
2022-07-29T19:58:31.042Z,24.40
2022-07-29T20:00:59.312Z,24.30
2022-07-29T20:03:26.020Z,24.30
2022-07-29T20:05:52.767Z,24.20
2022-07-29T20:08:19.477Z,24.20
2022-07-29T20:10:46.170Z,24.10
2022-07-29T20:13:12.847Z,24.10
2022-07-29T20:15:39.744Z,24.00
2022-07-29T20:18:06.509Z,24.00
2022-07-29T20:20:33.224Z,24.00
2022-07-29T20:22:59.914Z,23.90
2022-07-29T20:25:27.198Z,23.90
2022-07-29T20:27:53.920Z,23.90
2022-07-29T20:30:21.260Z,23.90
2022-07-29T20:32:48.264Z,23.80
2022-07-29T20:35:15.015Z,23.80
2022-07-29T20:37:52.388Z,23.70
2022-07-29T20:40:22.923Z,23.70
2022-07-29T20:42:49.991Z,23.60
2022-07-29T20:45:16.866Z,23.50
2022-07-29T20:47:43.564Z,23.50
2022-07-29T20:50:10.433Z,23.40
2022-07-29T20:52:37.178Z,23.40
2022-07-29T20:55:04.199Z,23.30
2022-07-29T20:57:38.885Z,23.30
2022-07-29T21:00:07.339Z,23.30
2022-07-29T21:02:34.163Z,23.30
2022-07-29T21:05:00.929Z,23.20
2022-07-29T21:07:27.664Z,23.10
2022-07-29T21:09:54.372Z,23.10
2022-07-29T21:12:21.053Z,23.00
2022-07-29T21:14:47.798Z,23.00
2022-07-29T21:17:15.123Z,22.90
2022-07-29T21:19:42.136Z,22.80
2022-07-29T21:22:08.923Z,22.80
2022-07-29T21:24:35.639Z,22.70
2022-07-29T21:27:19.769Z,22.70
2022-07-29T21:29:47.776Z,22.60
2022-07-29T21:32:14.524Z,22.50
2022-07-29T21:34:55.856Z,22.50
2022-07-29T21:37:22.568Z,22.50
2022-07-29T21:39:49.270Z,22.40
2022-07-29T21:42:16.015Z,22.40
2022-07-29T21:44:42.699Z,22.30
2022-07-29T21:47:09.540Z,22.30
2022-07-29T21:49:36.311Z,22.30
2022-07-29T21:52:04.209Z,22.20
2022-07-29T21:54:31.400Z,22.20
2022-07-29T21:56:58.111Z,22.20
2022-07-29T21:59:24.929Z,22.20
2022-07-29T22:01:51.652Z,22.20
2022-07-29T22:04:18.453Z,22.10
2022-07-29T22:06:45.282Z,22.10
2022-07-29T22:09:12.063Z,22.10
2022-07-29T22:11:38.830Z,22.10
2022-07-29T22:14:05.608Z,22.10
2022-07-29T22:16:32.348Z,22.10
2022-07-29T22:18:59.136Z,22.10
2022-07-29T22:21:25.902Z,22.00
2022-07-29T22:23:52.630Z,21.90
2022-07-29T22:26:19.412Z,21.90
2022-07-29T22:28:46.105Z,21.80
2022-07-29T22:31:12.918Z,21.80
2022-07-29T22:33:39.638Z,21.80
2022-07-29T22:36:06.634Z,21.70
2022-07-29T22:38:33.308Z,21.70
2022-07-29T22:41:00.570Z,21.70
2022-07-29T22:43:28.388Z,21.60
2022-07-29T22:45:55.125Z,21.60
2022-07-29T22:48:21.834Z,21.60
2022-07-29T22:50:48.575Z,21.60
2022-07-29T22:53:15.239Z,21.60
2022-07-29T22:55:41.998Z,21.60
2022-07-29T22:58:08.689Z,21.50
2022-07-29T23:00:35.458Z,21.50
2022-07-29T23:03:02.131Z,21.50
2022-07-29T23:05:28.898Z,21.50
2022-07-29T23:07:55.687Z,21.50
2022-07-29T23:10:22.385Z,21.50
2022-07-29T23:12:49.116Z,21.50
2022-07-29T23:15:15.811Z,21.50
2022-07-29T23:17:44.843Z,21.40
2022-07-29T23:20:11.707Z,21.40
2022-07-29T23:22:41.614Z,21.40
2022-07-29T23:25:08.531Z,21.30
2022-07-29T23:27:35.238Z,21.30
2022-07-29T23:30:02.047Z,21.20
2022-07-29T23:32:28.803Z,21.20
2022-07-29T23:34:55.508Z,21.20
2022-07-29T23:37:22.190Z,21.20
2022-07-29T23:39:48.918Z,21.20
2022-07-29T23:42:15.619Z,21.10
2022-07-29T23:44:42.311Z,21.20
2022-07-29T23:47:08.993Z,21.10
2022-07-29T23:49:35.705Z,21.10
2022-07-29T23:52:02.398Z,21.10
2022-07-29T23:54:29.105Z,21.10
2022-07-29T23:56:55.781Z,21.10
2022-07-29T23:59:22.487Z,21.10
